createdAt,value
2019-03-04T00:00:10.452Z,84.64
2019-03-04T00:01:10.443Z,82.60
2019-03-04T00:02:10.428Z,80.77
2019-03-04T00:03:10.413Z,80.12
2019-03-04T00:04:10.407Z,78.44
2019-03-04T00:05:10.397Z,78.03
2019-03-04T00:06:10.388Z,78.23
2019-03-04T00:07:10.371Z,77.41
2019-03-04T00:08:10.359Z,78.54
2019-03-04T00:09:10.349Z,78.99
2019-03-04T00:10:10.336Z,78.89
2019-03-04T00:11:10.331Z,78.33
2019-03-04T00:12:10.315Z,78.27
2019-03-04T00:13:10.308Z,78.41
2019-03-04T00:14:10.296Z,79.79
2019-03-04T00:15:10.286Z,80.13
2019-03-04T00:16:10.271Z,80.75
2019-03-04T00:17:10.264Z,81.61
2019-03-04T00:18:10.251Z,81.77
2019-03-04T00:19:10.242Z,81.77
2019-03-04T00:20:10.229Z,81.23
2019-03-04T00:21:10.218Z,80.61
2019-03-04T00:22:10.206Z,79.95
2019-03-04T00:23:10.199Z,80.16
2019-03-04T00:24:10.188Z,79.99
2019-03-04T00:25:10.175Z,79.79
2019-03-04T00:26:10.166Z,80.61
2019-03-04T00:27:10.159Z,81.43
2019-03-04T00:28:10.146Z,80.85
2019-03-04T00:29:10.134Z,81.33
2019-03-04T00:30:10.122Z,80.77
2019-03-04T00:31:10.112Z,79.50
2019-03-04T00:32:10.099Z,79.19
2019-03-04T00:33:10.086Z,78.78
2019-03-04T00:34:10.078Z,78.58
2019-03-04T00:35:10.063Z,78.68
2019-03-04T00:36:10.055Z,78.06
2019-03-04T00:37:10.047Z,78.37
2019-03-04T00:38:10.057Z,78.99
2019-03-04T00:39:10.022Z,78.37
2019-03-04T00:40:10.009Z,78.06
2019-03-04T00:41:09.997Z,78.99
2019-03-04T00:42:09.998Z,78.27
2019-03-04T00:43:09.978Z,77.00
2019-03-04T00:44:09.968Z,75.87
2019-03-04T00:45:09.956Z,75.63
2019-03-04T00:46:09.944Z,75.01
2019-03-04T00:47:09.934Z,75.01
2019-03-04T00:48:09.967Z,74.40
2019-03-04T00:49:09.917Z,75.12
2019-03-04T00:50:09.899Z,73.36
2019-03-04T00:51:09.887Z,73.54
2019-03-04T00:52:09.886Z,73.54
2019-03-04T00:53:09.866Z,72.68
2019-03-04T00:54:09.859Z,72.58
2019-03-04T00:55:09.847Z,72.27
2019-03-04T00:56:09.835Z,72.78
2019-03-04T00:57:09.821Z,72.68
2019-03-04T00:58:09.810Z,72.68
2019-03-04T00:59:09.803Z,73.50
2019-03-04T01:00:09.787Z,73.81
2019-03-04T01:01:09.779Z,74.26
2019-03-04T01:02:09.774Z,73.10
2019-03-04T01:03:09.755Z,73.10
2019-03-04T01:04:09.747Z,74.05
2019-03-04T01:05:09.732Z,73.74
2019-03-04T01:06:09.724Z,73.85
2019-03-04T01:07:09.712Z,73.85
2019-03-04T01:08:09.699Z,73.54
2019-03-04T01:09:09.689Z,73.74
2019-03-04T01:10:09.677Z,74.46
2019-03-04T01:11:09.667Z,75.01
2019-03-04T01:12:09.658Z,74.91
2019-03-04T01:13:09.646Z,74.70
2019-03-04T01:14:09.633Z,74.91
2019-03-04T01:15:09.621Z,74.84
2019-03-04T01:16:09.611Z,75.21
2019-03-04T01:17:09.599Z,75.15
2019-03-04T01:18:09.589Z,74.19
2019-03-04T01:19:09.583Z,74.60
2019-03-04T01:20:09.570Z,74.40
2019-03-04T01:21:09.557Z,73.57
2019-03-04T01:22:09.553Z,73.88
2019-03-04T01:23:09.534Z,73.36
2019-03-04T01:24:09.531Z,72.96
2019-03-04T01:25:09.514Z,72.72
2019-03-04T01:26:09.502Z,72.51
2019-03-04T01:27:09.488Z,72.75
2019-03-04T01:28:09.476Z,73.36
2019-03-04T01:29:09.465Z,73.47
2019-03-04T01:30:09.458Z,73.61
2019-03-04T01:31:09.444Z,74.33
2019-03-04T01:32:09.435Z,74.63
2019-03-04T01:33:09.423Z,73.50
2019-03-04T01:34:09.415Z,74.63
2019-03-04T01:35:09.399Z,74.63
2019-03-04T01:36:09.386Z,74.57
2019-03-04T01:37:09.386Z,73.36
2019-03-04T01:38:09.368Z,72.48
2019-03-04T01:39:09.359Z,70.84
2019-03-04T01:40:09.348Z,70.84
2019-03-04T01:41:09.337Z,69.67
2019-03-04T01:42:09.324Z,69.78
2019-03-04T01:43:09.318Z,71.14
2019-03-04T01:44:09.298Z,72.55
2019-03-04T01:45:09.288Z,73.16
2019-03-04T01:46:09.281Z,72.61
2019-03-04T01:47:09.272Z,73.16
2019-03-04T01:48:09.258Z,73.40
2019-03-04T01:49:09.246Z,74.43
2019-03-04T01:50:09.233Z,74.67
2019-03-04T01:51:09.227Z,73.47
2019-03-04T01:52:09.216Z,72.82
2019-03-04T01:53:09.203Z,71.25
2019-03-04T01:54:09.186Z,69.29
2019-03-04T01:55:09.176Z,69.16
2019-03-04T01:56:09.164Z,68.44
2019-03-04T01:57:09.154Z,68.85
2019-03-04T01:58:09.142Z,69.50
2019-03-04T01:59:09.131Z,69.91
2019-03-04T02:00:09.120Z,70.90
2019-03-04T02:01:09.112Z,71.48
2019-03-04T02:02:09.100Z,70.97
2019-03-04T02:03:09.088Z,71.17
2019-03-04T02:04:09.083Z,71.38
2019-03-04T02:05:09.064Z,72.34
2019-03-04T02:06:09.062Z,72.65
2019-03-04T02:07:09.047Z,70.59
2019-03-04T02:08:09.030Z,70.87
2019-03-04T02:09:09.025Z,70.87
2019-03-04T02:10:09.014Z,71.35
2019-03-04T02:11:08.995Z,71.17
2019-03-04T02:12:08.990Z,70.42
2019-03-04T02:13:08.977Z,69.81
2019-03-04T02:14:08.969Z,69.81
2019-03-04T02:15:08.957Z,68.99
2019-03-04T02:16:08.941Z,69.70
2019-03-04T02:17:08.934Z,70.97
2019-03-04T02:18:08.926Z,71.08
2019-03-04T02:19:08.911Z,69.81
2019-03-04T02:20:08.900Z,70.01
2019-03-04T02:21:08.887Z,70.42
2019-03-04T02:22:08.876Z,70.76
2019-03-04T02:23:08.866Z,70.66
2019-03-04T02:24:08.858Z,70.63
2019-03-04T02:25:08.846Z,69.60
2019-03-04T02:26:08.829Z,67.93
2019-03-04T02:27:08.823Z,67.69
2019-03-04T02:28:08.812Z,67.79
2019-03-04T02:29:08.797Z,68.44
2019-03-04T02:30:08.791Z,69.81
2019-03-04T02:31:08.778Z,70.97
2019-03-04T02:32:08.766Z,70.97
2019-03-04T02:33:08.758Z,69.29
2019-03-04T02:34:08.745Z,67.72
2019-03-04T02:35:08.731Z,66.67
2019-03-04T02:36:08.720Z,66.53
2019-03-04T02:37:08.709Z,66.12
2019-03-04T02:38:08.698Z,66.02
2019-03-04T02:39:08.691Z,65.92
2019-03-04T02:40:08.688Z,66.02
2019-03-04T02:41:08.667Z,66.33
2019-03-04T02:42:08.666Z,66.94
2019-03-04T02:43:08.646Z,67.72
2019-03-04T02:44:08.632Z,68.85
2019-03-04T02:45:08.622Z,69.19
2019-03-04T02:46:08.609Z,69.91
2019-03-04T02:47:08.601Z,69.81
2019-03-04T02:48:08.586Z,70.66
2019-03-04T02:49:08.578Z,71.48
2019-03-04T02:50:08.567Z,71.62
2019-03-04T02:51:08.554Z,72.68
2019-03-04T02:52:08.601Z,74.26
2019-03-04T02:53:08.535Z,74.77
2019-03-04T02:54:08.527Z,74.26
2019-03-04T02:55:08.516Z,75.22
2019-03-04T02:56:08.501Z,74.98
2019-03-04T02:57:08.489Z,74.36
2019-03-04T02:58:08.476Z,73.02
2019-03-04T02:59:08.465Z,72.75
2019-03-04T03:00:08.470Z,72.65
2019-03-04T03:01:08.470Z,72.75
2019-03-04T03:02:08.433Z,72.85
2019-03-04T03:03:08.426Z,72.65
2019-03-04T03:04:08.407Z,72.75
2019-03-04T03:05:08.399Z,72.31
2019-03-04T03:06:08.397Z,72.61
2019-03-04T03:07:08.379Z,72.51
2019-03-04T03:08:08.365Z,72.72
2019-03-04T03:09:08.354Z,72.00
2019-03-04T03:10:08.342Z,73.02
2019-03-04T03:11:08.336Z,71.69
2019-03-04T03:12:08.326Z,72.27
2019-03-04T03:13:08.309Z,73.02
2019-03-04T03:14:08.298Z,72.82
2019-03-04T03:15:08.287Z,72.48
2019-03-04T03:16:08.277Z,71.97
2019-03-04T03:17:08.281Z,71.52
2019-03-04T03:18:08.255Z,70.80
2019-03-04T03:19:08.244Z,70.08
2019-03-04T03:20:08.235Z,70.22
2019-03-04T03:21:08.222Z,70.12
2019-03-04T03:22:08.219Z,70.94
2019-03-04T03:23:08.197Z,71.25
2019-03-04T03:24:08.185Z,70.70
2019-03-04T03:25:08.189Z,70.50
2019-03-04T03:26:08.167Z,69.84
2019-03-04T03:27:08.204Z,69.98
2019-03-04T03:28:08.144Z,70.84
2019-03-04T03:29:08.132Z,71.45
2019-03-04T03:30:08.120Z,71.69
2019-03-04T03:31:08.121Z,72.82
2019-03-04T03:32:08.099Z,73.16
2019-03-04T03:33:08.090Z,73.57
2019-03-04T03:34:08.075Z,73.57
2019-03-04T03:35:08.810Z,74.08
2019-03-04T03:36:08.055Z,74.60
2019-03-04T03:37:08.042Z,73.47
2019-03-04T03:38:08.026Z,73.88
2019-03-04T03:39:08.021Z,73.27
2019-03-04T03:40:08.013Z,73.36
2019-03-04T03:41:08.000Z,73.57
2019-03-04T03:42:07.986Z,74.33
2019-03-04T03:43:07.981Z,74.53
2019-03-04T03:44:07.966Z,75.18
2019-03-04T03:45:07.953Z,75.29
2019-03-04T03:46:07.938Z,75.52
2019-03-04T03:47:07.935Z,76.45
2019-03-04T03:48:07.920Z,76.14
2019-03-04T03:49:07.912Z,75.90
2019-03-04T03:50:07.904Z,75.80
2019-03-04T03:51:07.890Z,75.70
2019-03-04T03:52:07.887Z,75.49
2019-03-04T03:53:07.868Z,75.39
2019-03-04T03:54:07.871Z,75.04
2019-03-04T03:55:07.846Z,75.04
2019-03-04T03:56:07.836Z,75.29
2019-03-04T03:57:07.823Z,75.18
2019-03-04T03:58:07.813Z,75.15
2019-03-04T03:59:07.800Z,75.01
2019-03-04T04:00:07.786Z,74.70
2019-03-04T04:01:07.782Z,74.50
2019-03-04T04:02:07.765Z,74.80
2019-03-04T04:03:07.754Z,75.01
2019-03-04T04:04:07.744Z,74.60
2019-03-04T04:05:07.743Z,74.15
2019-03-04T04:06:07.719Z,73.50
2019-03-04T04:07:07.713Z,73.10
2019-03-04T04:08:07.698Z,72.68
2019-03-04T04:09:07.692Z,72.99
2019-03-04T04:10:07.675Z,72.78
2019-03-04T04:11:07.667Z,73.13
2019-03-04T04:12:07.651Z,73.02
2019-03-04T04:13:07.646Z,73.64
2019-03-04T04:14:07.634Z,73.74
2019-03-04T04:15:07.622Z,74.40
2019-03-04T04:16:07.611Z,74.29
2019-03-04T04:17:07.601Z,74.43
2019-03-04T04:18:07.589Z,75.25
2019-03-04T04:19:07.577Z,75.46
2019-03-04T04:20:07.570Z,75.04
2019-03-04T04:21:07.550Z,75.87
2019-03-04T04:22:07.557Z,75.90
2019-03-04T04:23:07.533Z,77.24
2019-03-04T04:24:07.517Z,77.03
2019-03-04T04:25:07.507Z,76.93
2019-03-04T04:26:07.500Z,76.83
2019-03-04T04:27:07.484Z,77.45
2019-03-04T04:28:07.475Z,77.45
2019-03-04T04:29:07.469Z,77.45
2019-03-04T04:30:07.453Z,77.58
2019-03-04T04:31:07.444Z,77.89
2019-03-04T04:32:07.432Z,77.69
2019-03-04T04:33:07.420Z,77.65
2019-03-04T04:34:07.417Z,77.34
2019-03-04T04:35:07.404Z,77.45
2019-03-04T04:36:07.386Z,77.45
2019-03-04T04:37:07.373Z,77.14
2019-03-04T04:38:07.362Z,77.03
2019-03-04T04:39:07.353Z,76.73
2019-03-04T04:40:07.343Z,76.83
2019-03-04T04:41:07.338Z,77.58
2019-03-04T04:42:07.330Z,78.30
2019-03-04T04:43:07.309Z,78.86
2019-03-04T04:44:07.297Z,78.75
2019-03-04T04:45:07.286Z,78.72
2019-03-04T04:46:07.273Z,79.13
2019-03-04T04:47:07.263Z,78.65
2019-03-04T04:48:07.253Z,79.68
2019-03-04T04:49:07.239Z,79.99
2019-03-04T04:50:07.230Z,80.51
2019-03-04T04:51:07.221Z,80.61
2019-03-04T04:52:07.216Z,80.05
2019-03-04T04:53:07.197Z,78.37
2019-03-04T04:54:07.180Z,77.62
2019-03-04T04:55:07.173Z,76.79
2019-03-04T04:56:07.166Z,76.69
2019-03-04T04:57:07.151Z,77.62
2019-03-04T04:58:07.145Z,77.75
2019-03-04T04:59:07.129Z,77.51
2019-03-04T05:00:07.120Z,77.41
2019-03-04T05:01:07.105Z,77.20
2019-03-04T05:02:07.101Z,76.25
2019-03-04T05:03:07.082Z,76.14
2019-03-04T05:04:07.080Z,76.79
2019-03-04T05:05:07.063Z,76.69
2019-03-04T05:06:07.050Z,77.65
2019-03-04T05:07:07.039Z,77.14
2019-03-04T05:08:07.033Z,77.48
2019-03-04T05:09:07.016Z,77.83
2019-03-04T05:10:07.006Z,78.75
2019-03-04T05:11:06.994Z,78.69
2019-03-04T05:12:06.986Z,79.65
2019-03-04T05:13:06.974Z,81.09
2019-03-04T05:14:06.962Z,81.65
2019-03-04T05:15:06.946Z,81.85
2019-03-04T05:16:06.938Z,81.96
2019-03-04T05:17:06.927Z,82.10
2019-03-04T05:18:06.916Z,82.10
2019-03-04T05:19:06.916Z,82.03
2019-03-04T05:20:06.898Z,82.86
2019-03-04T05:21:06.896Z,84.41
2019-03-04T05:22:06.874Z,85.44
2019-03-04T05:23:06.862Z,84.81
2019-03-04T05:24:06.851Z,84.61
2019-03-04T05:25:06.847Z,83.48
2019-03-04T05:26:06.837Z,82.34
2019-03-04T05:27:06.856Z,82.14
2019-03-04T05:28:06.811Z,82.03
2019-03-04T05:29:06.801Z,83.31
2019-03-04T05:30:06.789Z,84.65
2019-03-04T05:31:06.774Z,85.23
2019-03-04T05:32:06.765Z,84.81
2019-03-04T05:33:06.754Z,84.16
2019-03-04T05:34:06.743Z,83.71
2019-03-04T05:35:06.760Z,83.01
2019-03-04T05:36:06.724Z,81.23
2019-03-04T05:37:06.711Z,80.57
2019-03-04T05:38:06.702Z,80.36
2019-03-04T05:39:06.691Z,79.44
2019-03-04T05:40:06.673Z,79.30
2019-03-04T05:41:06.664Z,79.03
2019-03-04T05:42:06.657Z,79.79
2019-03-04T05:43:06.647Z,80.40
2019-03-04T05:44:06.645Z,79.88
2019-03-04T05:45:06.622Z,80.19
2019-03-04T05:46:06.616Z,80.61
2019-03-04T05:47:06.599Z,79.88
2019-03-04T05:48:07.708Z,79.64
2019-03-04T05:49:06.580Z,79.54
2019-03-04T05:50:06.562Z,78.92
2019-03-04T05:51:06.555Z,78.47
2019-03-04T05:52:06.544Z,77.69
2019-03-04T05:53:06.537Z,77.58
2019-03-04T05:54:06.526Z,78.65
2019-03-04T05:55:08.781Z,79.06
2019-03-04T05:56:06.504Z,79.82
2019-03-04T05:57:06.493Z,80.75
2019-03-04T05:58:06.475Z,80.40
2019-03-04T05:59:06.474Z,79.99
2019-03-04T06:00:06.462Z,79.88
2019-03-04T06:01:06.448Z,79.68
2019-03-04T06:02:06.437Z,79.99
2019-03-04T06:03:06.427Z,79.47
2019-03-04T06:04:06.418Z,80.33
2019-03-04T06:05:06.399Z,80.75
2019-03-04T06:06:06.391Z,79.88
2019-03-04T06:07:06.379Z,80.19
2019-03-04T06:08:06.371Z,79.68
2019-03-04T06:09:06.355Z,80.05
2019-03-04T06:10:06.347Z,79.13
2019-03-04T06:11:06.334Z,78.68
2019-03-04T06:12:06.330Z,78.17
2019-03-04T06:13:06.316Z,78.99
2019-03-04T06:14:06.302Z,78.92
2019-03-04T06:15:06.289Z,78.72
2019-03-04T06:16:06.283Z,80.05
2019-03-04T06:17:06.266Z,78.23
2019-03-04T06:18:06.254Z,77.20
2019-03-04T06:19:06.247Z,77.41
2019-03-04T06:20:06.237Z,78.47
2019-03-04T06:21:06.224Z,78.23
2019-03-04T06:22:06.211Z,76.65
2019-03-04T06:23:06.204Z,75.87
2019-03-04T06:24:06.206Z,74.94
2019-03-04T06:25:07.479Z,74.40
2019-03-04T06:26:06.172Z,73.36
2019-03-04T06:27:06.161Z,72.61
2019-03-04T06:28:06.148Z,72.89
2019-03-04T06:29:06.137Z,71.59
2019-03-04T06:30:06.133Z,70.57
2019-03-04T06:31:06.115Z,69.31
2019-03-04T06:32:06.101Z,69.61
2019-03-04T06:33:06.091Z,68.66
2019-03-04T06:34:06.082Z,69.10
2019-03-04T06:35:06.069Z,68.69
2019-03-04T06:36:06.086Z,68.05
2019-03-04T06:37:06.056Z,66.14
2019-03-04T06:38:06.033Z,65.47
2019-03-04T06:39:06.024Z,64.24
2019-03-04T06:40:06.015Z,63.57
2019-03-04T06:41:06.006Z,62.24
2019-03-04T06:42:05.989Z,62.35
2019-03-04T06:43:05.983Z,62.08
2019-03-04T06:44:05.970Z,60.02
2019-03-04T06:45:05.960Z,60.22
2019-03-04T06:46:05.951Z,60.16
2019-03-04T06:47:05.932Z,58.30
2019-03-04T06:48:05.929Z,58.40
2019-03-04T06:49:05.915Z,58.44
2019-03-04T06:50:05.901Z,59.66
2019-03-04T06:51:05.891Z,58.28
2019-03-04T06:52:05.879Z,58.07
2019-03-04T06:53:05.875Z,57.56
2019-03-04T06:54:05.863Z,58.53
2019-03-04T06:55:05.844Z,57.43
2019-03-04T06:56:05.839Z,55.96
2019-03-04T06:57:05.823Z,55.02
2019-03-04T06:58:05.824Z,55.27
2019-03-04T06:59:05.814Z,55.43
2019-03-04T07:00:05.789Z,54.36
2019-03-04T07:01:05.797Z,55.55
2019-03-04T07:02:05.773Z,55.88
2019-03-04T07:03:05.759Z,55.91
2019-03-04T07:04:05.753Z,56.21
2019-03-04T07:05:05.739Z,56.42
2019-03-04T07:06:05.731Z,56.09
2019-03-04T07:07:05.713Z,55.81
2019-03-04T07:08:05.703Z,56.52
2019-03-04T07:09:05.694Z,57.29
2019-03-04T07:10:05.679Z,58.33
2019-03-04T07:11:05.672Z,59.91
2019-03-04T07:12:05.665Z,60.02
2019-03-04T07:13:05.656Z,60.28
2019-03-04T07:14:05.644Z,62.35
2019-03-04T07:15:05.630Z,62.35
2019-03-04T07:16:05.622Z,62.68
2019-03-04T07:17:05.605Z,63.73
2019-03-04T07:18:05.598Z,63.93
2019-03-04T07:19:05.581Z,63.60
2019-03-04T07:20:05.576Z,64.04
2019-03-04T07:21:05.556Z,63.93
2019-03-04T07:22:05.548Z,63.60
2019-03-04T07:23:05.541Z,63.73
2019-03-04T07:24:05.528Z,63.93
2019-03-04T07:25:05.518Z,63.81
2019-03-04T07:26:05.507Z,63.83
2019-03-04T07:27:05.501Z,63.78
2019-03-04T07:28:05.481Z,62.73
2019-03-04T07:29:05.473Z,62.62
2019-03-04T07:30:05.465Z,62.05
2019-03-04T07:31:05.452Z,61.44
2019-03-04T07:32:05.442Z,62.52
2019-03-04T07:33:05.434Z,63.87
2019-03-04T07:34:05.416Z,65.57
2019-03-04T07:35:05.402Z,65.88
2019-03-04T07:36:05.398Z,65.23
2019-03-04T07:37:05.384Z,64.79
2019-03-04T07:38:05.380Z,63.87
2019-03-04T07:39:05.360Z,62.66
2019-03-04T07:40:05.351Z,62.23
2019-03-04T07:41:05.344Z,61.36
2019-03-04T07:42:05.334Z,60.57
2019-03-04T07:43:05.319Z,60.21
2019-03-04T07:44:05.307Z,58.17
2019-03-04T07:45:05.300Z,58.06
2019-03-04T07:46:05.287Z,56.92
2019-03-04T07:47:05.276Z,56.03
2019-03-04T07:48:05.264Z,55.52
2019-03-04T07:49:05.251Z,55.96
2019-03-04T07:50:05.260Z,55.52
2019-03-04T07:51:05.229Z,55.25
2019-03-04T07:52:05.220Z,57.23
2019-03-04T07:53:05.205Z,56.46
2019-03-04T07:54:05.193Z,56.39
2019-03-04T07:55:05.184Z,57.33
2019-03-04T07:56:05.171Z,58.18
2019-03-04T07:57:05.159Z,55.55
2019-03-04T07:58:05.148Z,57.43
2019-03-04T07:59:05.142Z,56.71
2019-03-04T08:00:05.129Z,54.41
2019-03-04T08:01:05.118Z,53.25
2019-03-04T08:02:05.106Z,52.34
2019-03-04T08:03:05.094Z,49.69
2019-03-04T08:04:05.086Z,51.05
2019-03-04T08:05:05.082Z,52.36
2019-03-04T08:06:05.064Z,50.85
2019-03-04T08:07:05.055Z,52.61
2019-03-04T08:08:05.036Z,52.21
2019-03-04T08:09:05.026Z,52.01
2019-03-04T08:10:05.026Z,52.21
2019-03-04T08:11:05.017Z,51.10
2019-03-04T08:12:04.999Z,49.95
2019-03-04T08:13:05.002Z,48.79
2019-03-04T08:14:04.981Z,48.69
2019-03-04T08:15:04.965Z,48.37
2019-03-04T08:16:04.964Z,47.64
2019-03-04T08:17:04.971Z,47.79
2019-03-04T08:18:04.933Z,48.61
2019-03-04T08:19:04.914Z,49.55
2019-03-04T08:20:04.907Z,50.22
2019-03-04T08:21:04.899Z,53.42
2019-03-04T08:22:04.882Z,54.16
2019-03-04T08:23:04.874Z,54.92
2019-03-04T08:24:04.858Z,55.70
2019-03-04T08:25:04.847Z,56.39
2019-03-04T08:26:04.842Z,56.13
2019-03-04T08:27:04.831Z,55.85
2019-03-04T08:28:04.816Z,55.19
2019-03-04T08:29:04.805Z,56.61
2019-03-04T08:30:04.794Z,55.44
2019-03-04T08:31:04.788Z,53.98
2019-03-04T08:32:04.770Z,53.98
2019-03-04T08:33:04.760Z,54.99
2019-03-04T08:34:04.748Z,53.05
2019-03-04T08:35:04.739Z,53.02
2019-03-04T08:36:04.724Z,52.22
2019-03-04T08:37:04.722Z,49.02
2019-03-04T08:38:04.711Z,49.45
2019-03-04T08:39:04.705Z,48.25
2019-03-04T08:40:04.685Z,48.61
2019-03-04T08:41:04.677Z,48.72
2019-03-04T08:42:04.670Z,47.17
2019-03-04T08:43:04.653Z,44.24
2019-03-04T08:44:04.636Z,41.27
2019-03-04T08:45:04.629Z,42.61
2019-03-04T08:46:04.613Z,42.76
2019-03-04T08:47:04.615Z,44.12
2019-03-04T08:48:04.595Z,43.12
2019-03-04T08:49:04.585Z,43.18
2019-03-04T08:50:04.576Z,43.55
2019-03-04T08:51:04.566Z,46.14
2019-03-04T08:52:04.549Z,47.02
2019-03-04T08:53:04.536Z,47.00
2019-03-04T08:54:04.529Z,47.45
2019-03-04T08:55:04.517Z,44.84
2019-03-04T08:56:04.506Z,47.77
2019-03-04T08:57:04.497Z,48.35
2019-03-04T08:58:04.487Z,49.75
2019-03-04T08:59:04.472Z,48.39
2019-03-04T09:00:04.465Z,47.32
2019-03-04T09:01:04.456Z,47.70
2019-03-04T09:02:04.441Z,46.69
2019-03-04T09:03:04.443Z,47.09
2019-03-04T09:04:04.419Z,47.19
2019-03-04T09:05:04.411Z,48.57
2019-03-04T09:06:04.398Z,47.32
2019-03-04T09:07:04.383Z,47.12
2019-03-04T09:08:04.381Z,47.35
2019-03-04T09:09:04.370Z,47.70
2019-03-04T09:10:04.351Z,47.27
2019-03-04T09:11:04.345Z,46.15
2019-03-04T09:12:04.334Z,46.35
2019-03-04T09:13:04.335Z,46.59
2019-03-04T09:14:04.307Z,46.37
2019-03-04T09:15:04.303Z,45.54
2019-03-04T09:16:04.295Z,44.78
2019-03-04T09:17:04.289Z,44.95
2019-03-04T09:18:04.265Z,47.46
2019-03-04T09:19:04.252Z,49.40
2019-03-04T09:20:04.242Z,48.20
2019-03-04T09:21:04.236Z,46.12
2019-03-04T09:22:04.235Z,46.23
2019-03-04T09:23:04.222Z,46.75
2019-03-04T09:24:04.204Z,46.20
2019-03-04T09:25:04.191Z,46.55
2019-03-04T09:26:04.180Z,47.39
2019-03-04T09:27:04.168Z,46.23
2019-03-04T09:28:04.159Z,44.90
2019-03-04T09:29:04.147Z,44.76
2019-03-04T09:30:04.137Z,44.84
2019-03-04T09:31:04.133Z,43.19
2019-03-04T09:32:04.113Z,43.13
2019-03-04T09:33:04.104Z,42.13
2019-03-04T09:34:04.093Z,41.44
2019-03-04T09:35:04.083Z,42.79
2019-03-04T09:36:04.075Z,43.12
2019-03-04T09:37:04.062Z,41.49
2019-03-04T09:38:04.064Z,41.77
2019-03-04T09:39:04.041Z,41.44
2019-03-04T09:40:04.026Z,42.54
2019-03-04T09:41:04.017Z,44.62
2019-03-04T09:42:04.008Z,42.77
2019-03-04T09:43:04.000Z,42.05
2019-03-04T09:44:03.990Z,42.10
2019-03-04T09:45:03.977Z,44.84
2019-03-04T09:46:03.973Z,47.46
2019-03-04T09:47:03.953Z,49.52
2019-03-04T09:48:03.943Z,49.75
2019-03-04T09:49:03.935Z,48.49
2019-03-04T09:50:03.926Z,49.22
2019-03-04T09:51:03.914Z,50.65
2019-03-04T09:52:03.898Z,50.63
2019-03-04T09:53:03.893Z,49.13
2019-03-04T09:54:03.882Z,48.18
2019-03-04T09:55:03.873Z,45.04
2019-03-04T09:56:03.856Z,42.03
2019-03-04T09:57:03.853Z,43.24
2019-03-04T09:58:03.841Z,45.95
2019-03-04T09:59:03.827Z,48.37
2019-03-04T10:00:03.820Z,49.85
2019-03-04T10:01:03.804Z,51.93
2019-03-04T10:02:03.797Z,52.26
2019-03-04T10:03:03.779Z,52.97
2019-03-04T10:04:03.820Z,52.44
2019-03-04T10:05:03.767Z,52.64
2019-03-04T10:06:03.756Z,52.24
2019-03-04T10:07:03.767Z,52.34
2019-03-04T10:08:03.731Z,52.04
2019-03-04T10:09:03.720Z,52.44
2019-03-04T10:10:03.722Z,53.00
2019-03-04T10:11:03.702Z,53.07
2019-03-04T10:12:03.689Z,52.34
2019-03-04T10:13:03.680Z,52.31
2019-03-04T10:14:03.664Z,52.51
2019-03-04T10:15:08.312Z,52.80
2019-03-04T10:16:04.649Z,52.09
2019-03-04T10:17:03.631Z,51.06
2019-03-04T10:18:03.627Z,49.65
2019-03-04T10:19:03.637Z,48.52
2019-03-04T10:20:03.603Z,46.83
2019-03-04T10:21:03.593Z,46.35
2019-03-04T10:22:03.590Z,47.85
2019-03-04T10:23:03.576Z,49.19
2019-03-04T10:24:03.561Z,48.27
2019-03-04T10:25:03.551Z,49.30
2019-03-04T10:26:03.538Z,49.60
2019-03-04T10:27:03.527Z,47.19
2019-03-04T10:28:03.516Z,47.07
2019-03-04T10:29:03.515Z,46.25
2019-03-04T10:30:03.497Z,47.00
2019-03-04T10:31:03.485Z,47.62
2019-03-04T10:32:03.479Z,48.49
2019-03-04T10:33:03.465Z,49.73
2019-03-04T10:34:03.469Z,50.43
2019-03-04T10:35:03.478Z,50.50
2019-03-04T10:36:03.441Z,52.16
2019-03-04T10:37:03.429Z,51.73
2019-03-04T10:38:03.409Z,50.70
2019-03-04T10:39:03.398Z,50.90
2019-03-04T10:40:03.388Z,50.88
2019-03-04T10:41:03.375Z,50.98
2019-03-04T10:42:03.370Z,49.82
2019-03-04T10:43:03.361Z,49.42
2019-03-04T10:44:03.341Z,49.32
2019-03-04T10:45:03.331Z,49.30
2019-03-04T10:46:03.318Z,47.22
2019-03-04T10:47:03.315Z,47.07
2019-03-04T10:48:03.304Z,46.55
2019-03-04T10:49:03.286Z,45.53
2019-03-04T10:50:03.278Z,45.50
2019-03-04T10:51:03.282Z,44.35
2019-03-04T10:52:03.258Z,42.82
2019-03-04T10:53:03.246Z,42.60
2019-03-04T10:54:03.232Z,42.15
2019-03-04T10:55:03.220Z,42.27
2019-03-04T10:56:03.207Z,42.97
2019-03-04T10:57:03.201Z,43.40
2019-03-04T10:58:03.189Z,45.92
2019-03-04T10:59:03.207Z,46.72
2019-03-04T11:00:03.167Z,46.97
2019-03-04T11:01:03.164Z,46.47
2019-03-04T11:02:03.145Z,45.75
2019-03-04T11:03:03.139Z,44.80
2019-03-04T11:04:03.130Z,44.16
2019-03-04T11:05:03.126Z,43.04
2019-03-04T11:06:03.101Z,43.55
2019-03-04T11:07:03.097Z,45.12
2019-03-04T11:08:03.079Z,45.14
2019-03-04T11:09:03.069Z,46.25
2019-03-04T11:10:03.061Z,46.25
2019-03-04T11:11:03.050Z,45.92
2019-03-04T11:12:03.056Z,45.70
2019-03-04T11:13:03.031Z,46.28
2019-03-04T11:14:03.019Z,43.48
2019-03-04T11:15:03.021Z,44.00
2019-03-04T11:16:03.016Z,44.08
2019-03-04T11:17:02.981Z,43.27
2019-03-04T11:18:02.975Z,44.70
2019-03-04T11:19:02.962Z,45.26
2019-03-04T11:20:02.963Z,43.26
2019-03-04T11:21:02.961Z,44.62
2019-03-04T11:22:02.932Z,45.32
2019-03-04T11:23:02.929Z,43.88
2019-03-04T11:24:02.914Z,42.96
2019-03-04T11:25:02.901Z,43.16
2019-03-04T11:26:02.889Z,43.54
2019-03-04T11:27:02.883Z,43.13
2019-03-04T11:28:02.873Z,42.35
2019-03-04T11:29:02.856Z,43.35
2019-03-04T11:30:02.854Z,43.27
2019-03-04T11:31:02.835Z,42.77
2019-03-04T11:32:02.824Z,43.60
2019-03-04T11:33:02.810Z,45.25
2019-03-04T11:34:02.806Z,43.40
2019-03-04T11:35:02.800Z,43.27
2019-03-04T11:36:02.780Z,43.08
2019-03-04T11:37:02.774Z,44.00
2019-03-04T11:38:02.758Z,44.64
2019-03-04T11:39:02.767Z,44.87
2019-03-04T11:40:02.740Z,45.25
2019-03-04T11:41:02.742Z,44.96
2019-03-04T11:42:02.709Z,44.54
2019-03-04T11:43:02.705Z,43.60
2019-03-04T11:44:02.735Z,43.30
2019-03-04T11:45:02.685Z,44.87
2019-03-04T11:46:02.676Z,44.99
2019-03-04T11:47:02.668Z,45.67
2019-03-04T11:48:02.646Z,46.44
2019-03-04T11:49:02.638Z,46.22
2019-03-04T11:50:02.626Z,44.64
2019-03-04T11:51:02.628Z,43.68
2019-03-04T11:52:02.609Z,43.88
2019-03-04T11:53:02.597Z,43.58
2019-03-04T11:54:02.587Z,43.05
2019-03-04T11:55:02.573Z,43.46
2019-03-04T11:56:02.563Z,42.19
2019-03-04T11:57:02.552Z,41.31
2019-03-04T11:58:02.543Z,38.35
2019-03-04T11:59:02.533Z,37.43
2019-03-04T12:00:02.535Z,37.71
2019-03-04T12:01:02.509Z,37.63
2019-03-04T12:02:02.524Z,38.75
2019-03-04T12:03:02.497Z,37.51
2019-03-04T12:04:02.478Z,38.86
2019-03-04T12:05:02.466Z,40.22
2019-03-04T12:06:02.456Z,40.23
2019-03-04T12:07:02.447Z,41.17
2019-03-04T12:08:02.437Z,42.11
2019-03-04T12:09:02.428Z,41.13
2019-03-04T12:10:02.415Z,42.88
2019-03-04T12:11:02.406Z,45.04
2019-03-04T12:12:02.388Z,44.96
2019-03-04T12:13:02.407Z,45.99
2019-03-04T12:14:03.273Z,45.59
2019-03-04T12:15:02.361Z,46.34
2019-03-04T12:16:02.352Z,47.16
2019-03-04T12:17:02.339Z,47.36
2019-03-04T12:18:02.341Z,47.14
2019-03-04T12:19:02.321Z,47.54
2019-03-04T12:20:02.308Z,47.62
2019-03-04T12:21:02.303Z,47.02
2019-03-04T12:22:02.287Z,46.59
2019-03-04T12:23:02.281Z,47.44
2019-03-04T12:24:02.261Z,48.35
2019-03-04T12:25:02.250Z,47.86
2019-03-04T12:26:02.240Z,47.69
2019-03-04T12:27:02.249Z,48.09
2019-03-04T12:28:02.241Z,48.67
2019-03-04T12:29:02.210Z,47.66
2019-03-04T12:30:02.212Z,48.07
2019-03-04T12:31:02.199Z,49.07
2019-03-04T12:32:02.184Z,48.49
2019-03-04T12:33:02.189Z,49.32
2019-03-04T12:34:02.155Z,49.19
2019-03-04T12:35:02.148Z,48.69
2019-03-04T12:36:02.135Z,49.18
2019-03-04T12:37:02.128Z,48.65
2019-03-04T12:38:02.119Z,47.62
2019-03-04T12:39:02.107Z,47.42
2019-03-04T12:40:02.094Z,46.92
2019-03-04T12:41:02.077Z,46.92
2019-03-04T12:42:02.076Z,47.02
2019-03-04T12:43:02.061Z,47.34
2019-03-04T12:44:02.070Z,48.39
2019-03-04T12:45:02.038Z,48.41
2019-03-04T12:46:02.033Z,48.44
2019-03-04T12:47:02.024Z,49.15
2019-03-04T12:48:02.010Z,49.87
2019-03-04T12:49:01.999Z,50.50
2019-03-04T12:50:01.996Z,51.00
2019-03-04T12:51:01.970Z,49.99
2019-03-04T12:52:01.960Z,50.90